Aviation Digital Data Service (ADDS)

Output produced by TAFs form (1622 UTC 02 August 2015)
found at http://aviationweather.gov/adds/tafs/
 
KELP 021120Z 0212/0312 15005KT P6SM SCT100 BKN250 
     FM022100 20010KT P6SM VCTS SCT070CB BKN120 
     FM030600 26010KT P6SM SCT100 BKN250